Hlavní strana
METAR-TAF:

METAR-TAF

Letiště :

Funafuti, Tuvalu

zeměpisná šířka: 08-31S, zeměpisná délka: 179-13E, výška: 1 m

METAR: chybějící

Čas: 16:34 (04:34 UTC)

Předpověď počasí

Zpráva byla vytvořena před 5 hodinami a 28 minutami, v 23:06 UTC
Předpověď platná od 17 v 00 UTC do 17 v 24 UTC
Severní vítr 8 kt
Viditelnost 10 km a více
Polojasno ve výšce 1800 ft
Oblačno až skoro zataženo ve výšce 4000 ft
slabé dešťové přeháňky
Pravděpodobnost 40% :
Dočasný
od 17 v 00 UTC do 17 v 18 UTC
Viditelnost: 3000 m
Oblačno až skoro zataženo ve výšce 1500 ft
Skoro jasno ve výšce 1800 ft, Cumulonimbus.
bouřka, déšť

TAF: NGFU 162306Z 1700/1724 35008KT 9999 -SHRA SCT018 BKN040 PROB40 TEMPO 1700/1718 3000 TSRA BKN015 FEW018CB

Stav a předpovědi počasí z více než 4 000 letišť (zprávy METAR a TAF).

Červené a žluté tečky na mapě představují dostupné meteorologické stanice.

Když kurzor umístíte na tečku, zobrazí se název stanice.

Pak kliknutím zobrazíte stav a předpověď počasí.

Chcete-li změnit mapu, kliknutím na zelené tlačítko se znaménkem +mapu přiblížíte, kliknutím na zelené tlačítko se znaménkem – mapu oddálíte a kliknutím na zelené šipky přejdete na sousední mapy.


METAR-TAF: